createdAt,value
2023-05-23T00:00:21.026Z,94912.00
2023-05-23T00:01:20.979Z,94912.00
2023-05-23T00:02:21.075Z,94909.00
2023-05-23T00:03:21.196Z,94910.00
2023-05-23T00:04:21.236Z,94912.00
2023-05-23T00:05:21.116Z,94913.00
2023-05-23T00:06:21.161Z,94913.00
2023-05-23T00:07:21.196Z,94912.00
2023-05-23T00:08:21.259Z,94913.00
2023-05-23T00:09:21.283Z,94912.00
2023-05-23T00:10:21.287Z,94912.00
2023-05-23T00:11:21.358Z,94915.00
2023-05-23T00:12:21.417Z,94912.00
2023-05-23T00:13:21.420Z,94914.00
2023-05-23T00:14:21.465Z,94915.00
2023-05-23T00:15:21.514Z,94914.00
2023-05-23T00:16:21.724Z,94916.00
2023-05-23T00:17:21.600Z,94916.00
2023-05-23T00:18:21.619Z,94919.00
2023-05-23T00:19:21.702Z,94918.00
2023-05-23T00:20:21.699Z,94919.00
2023-05-23T00:21:21.739Z,94919.00
2023-05-23T00:22:21.752Z,94920.00
2023-05-23T00:23:21.808Z,94918.00
2023-05-23T00:24:21.855Z,94919.00
2023-05-23T00:25:21.886Z,94916.00
2023-05-23T00:26:21.924Z,94917.00
2023-05-23T00:27:21.957Z,94918.00
2023-05-23T00:28:21.995Z,94919.00
2023-05-23T00:29:22.050Z,94919.00
2023-05-23T00:30:22.049Z,94919.00
2023-05-23T00:31:22.107Z,94919.00
2023-05-23T00:32:22.313Z,94922.00
2023-05-23T00:33:22.459Z,94920.00
2023-05-23T00:34:22.260Z,94923.00
2023-05-23T00:35:22.293Z,94922.00
2023-05-23T00:36:22.339Z,94920.00
2023-05-23T00:37:22.369Z,94922.00
2023-05-23T00:38:22.413Z,94918.00
2023-05-23T00:39:22.456Z,94920.00
2023-05-23T00:40:22.453Z,94919.00
2023-05-23T00:41:22.493Z,94919.00
2023-05-23T00:42:22.529Z,94919.00
2023-05-23T00:43:22.572Z,94919.00
2023-05-23T00:44:22.956Z,94919.00
2023-05-23T00:45:22.663Z,94920.00
2023-05-23T00:46:22.721Z,94920.00
2023-05-23T00:47:22.760Z,94920.00
2023-05-23T00:48:22.869Z,94919.00
2023-05-23T00:49:22.811Z,94921.00
2023-05-23T00:50:22.897Z,94922.00
2023-05-23T00:51:22.914Z,94923.00
2023-05-23T00:52:22.940Z,94924.00
2023-05-23T00:53:22.955Z,94926.00
2023-05-23T00:54:23.032Z,94928.00
2023-05-23T00:55:23.077Z,94928.00
2023-05-23T00:56:23.121Z,94929.00
2023-05-23T00:57:23.152Z,94930.00
2023-05-23T00:58:23.199Z,94931.00
2023-05-23T00:59:23.232Z,94929.00
2023-05-23T01:00:23.305Z,94928.00
2023-05-23T01:01:23.287Z,94927.00
2023-05-23T01:02:23.390Z,94926.00
2023-05-23T01:03:23.536Z,94925.00
2023-05-23T01:04:23.474Z,94922.00
2023-05-23T01:05:23.436Z,94920.00
2023-05-23T01:06:23.490Z,94918.00
2023-05-23T01:07:23.537Z,94919.00
2023-05-23T01:08:23.545Z,94920.00
2023-05-23T01:09:23.600Z,94920.00
2023-05-23T01:11:42.926Z,94922.00
2023-05-23T01:12:42.900Z,94923.00
2023-05-23T01:13:42.932Z,94925.00
2023-05-23T01:14:42.913Z,94927.00
2023-05-23T01:15:43.116Z,94926.00
2023-05-23T01:16:42.966Z,94930.00
2023-05-23T01:17:42.918Z,94930.00
2023-05-23T01:18:42.889Z,94934.00
2023-05-23T01:19:42.985Z,94933.00
2023-05-23T01:20:42.889Z,94934.00
2023-05-23T01:21:42.859Z,94935.00
2023-05-23T01:22:42.849Z,94935.00
2023-05-23T01:23:42.854Z,94934.00
2023-05-23T01:24:42.861Z,94934.00
2023-05-23T01:25:42.937Z,94934.00
2023-05-23T01:26:42.822Z,94931.00
2023-05-23T01:27:42.831Z,94932.00
2023-05-23T01:28:42.835Z,94932.00
2023-05-23T01:29:42.833Z,94933.00
2023-05-23T01:30:42.827Z,94931.00
2023-05-23T01:31:42.856Z,94932.00
2023-05-23T01:32:42.814Z,94933.00
2023-05-23T01:33:42.768Z,94937.00
2023-05-23T01:34:42.781Z,94937.00
2023-05-23T01:35:42.938Z,94939.00
2023-05-23T01:36:42.750Z,94937.00
2023-05-23T01:37:42.743Z,94940.00
2023-05-23T01:38:42.755Z,94940.00
2023-05-23T01:39:42.752Z,94939.00
2023-05-23T01:40:42.735Z,94939.00
2023-05-23T01:41:42.747Z,94938.00
2023-05-23T01:42:42.733Z,94935.00
2023-05-23T01:43:42.737Z,94935.00
2023-05-23T01:44:42.728Z,94935.00
2023-05-23T01:45:42.955Z,94933.00
2023-05-23T01:46:42.707Z,94934.00
2023-05-23T01:47:42.795Z,94935.00
2023-05-23T01:48:42.683Z,94933.00
2023-05-23T01:49:42.671Z,94934.00
2023-05-23T01:50:42.703Z,94934.00
2023-05-23T01:51:42.771Z,94935.00
2023-05-23T01:52:42.670Z,94935.00
2023-05-23T01:53:42.665Z,94934.00
2023-05-23T01:54:42.698Z,94936.00
2023-05-23T01:55:42.637Z,94935.00
2023-05-23T01:56:42.667Z,94933.00
2023-05-23T01:57:42.663Z,94932.00
2023-05-23T01:58:42.627Z,94930.00
2023-05-23T01:59:42.661Z,94927.00
2023-05-23T02:00:42.690Z,94929.00
2023-05-23T02:01:42.804Z,94929.00
2023-05-23T02:02:42.881Z,94931.00
2023-05-23T02:03:42.916Z,94927.00
2023-05-23T02:04:42.850Z,94931.00
2023-05-23T02:05:43.311Z,94930.00
2023-05-23T02:06:42.957Z,94932.00
2023-05-23T02:07:43.087Z,94935.00
2023-05-23T02:08:43.017Z,94933.00
2023-05-23T02:09:43.091Z,94936.00
2023-05-23T02:10:43.129Z,94938.00
2023-05-23T02:11:43.145Z,94938.00
2023-05-23T02:12:43.198Z,94938.00
2023-05-23T02:13:43.237Z,94937.00
2023-05-23T02:14:43.262Z,94937.00
2023-05-23T02:15:43.311Z,94936.00
2023-05-23T02:16:43.360Z,94938.00
2023-05-23T02:17:43.420Z,94937.00
2023-05-23T02:18:43.433Z,94934.00
2023-05-23T02:19:43.482Z,94936.00
2023-05-23T02:20:43.519Z,94937.00
2023-05-23T02:21:43.559Z,94937.00
2023-05-23T02:22:43.584Z,94937.00
2023-05-23T02:23:43.715Z,94937.00
2023-05-23T02:24:43.686Z,94938.00
2023-05-23T02:25:43.709Z,94937.00
2023-05-23T02:26:43.737Z,94937.00
2023-05-23T02:27:43.823Z,94940.00
2023-05-23T02:28:43.841Z,94938.00
2023-05-23T02:29:43.879Z,94939.00
2023-05-23T02:30:43.929Z,94940.00
2023-05-23T02:31:44.073Z,94942.00
2023-05-23T02:32:44.040Z,94941.00
2023-05-23T02:33:44.049Z,94943.00
2023-05-23T02:34:44.093Z,94945.00
2023-05-23T02:35:44.113Z,94944.00
2023-05-23T02:36:44.163Z,94946.00
2023-05-23T02:37:44.227Z,94944.00
2023-05-23T02:38:44.229Z,94945.00
2023-05-23T02:39:44.390Z,94943.00
2023-05-23T02:40:44.303Z,94942.00
2023-05-23T02:41:44.370Z,94942.00
2023-05-23T02:42:44.413Z,94944.00
2023-05-23T02:43:46.750Z,94945.00
2023-05-23T02:44:44.521Z,94946.00
2023-05-23T02:45:44.539Z,94948.00
2023-05-23T02:46:44.650Z,94947.00
2023-05-23T02:47:44.675Z,94947.00
2023-05-23T02:48:44.696Z,94947.00
2023-05-23T02:49:44.723Z,94948.00
2023-05-23T02:50:44.750Z,94950.00
2023-05-23T02:51:44.790Z,94951.00
2023-05-23T02:52:44.851Z,94952.00
2023-05-23T02:53:44.895Z,94950.00
2023-05-23T02:54:44.926Z,94952.00
2023-05-23T02:55:45.049Z,94952.00
2023-05-23T02:56:44.987Z,94951.00
2023-05-23T02:57:45.052Z,94953.00
2023-05-23T02:58:45.090Z,94954.00
2023-05-23T02:59:45.122Z,94956.00
2023-05-23T03:00:45.147Z,94958.00
2023-05-23T03:01:45.256Z,94959.00
2023-05-23T03:02:45.323Z,94962.00
2023-05-23T03:03:45.372Z,94960.00
2023-05-23T03:04:45.326Z,94960.00
2023-05-23T03:05:45.378Z,94961.00
2023-05-23T03:06:45.398Z,94961.00
2023-05-23T03:07:45.431Z,94961.00
2023-05-23T03:08:45.511Z,94960.00
2023-05-23T03:09:45.552Z,94960.00
2023-05-23T03:10:45.598Z,94957.00
2023-05-23T03:11:45.741Z,94956.00
2023-05-23T03:12:45.665Z,94958.00
2023-05-23T03:13:45.696Z,94959.00
2023-05-23T03:14:45.761Z,94958.00
2023-05-23T03:15:45.803Z,94959.00
2023-05-23T03:16:45.877Z,94959.00
2023-05-23T03:17:45.936Z,94958.00
2023-05-23T03:18:45.942Z,94956.00
2023-05-23T03:19:45.976Z,94957.00
2023-05-23T03:20:46.010Z,94958.00
2023-05-23T03:21:46.045Z,94957.00
2023-05-23T03:22:46.141Z,94958.00
2023-05-23T03:23:46.126Z,94960.00
2023-05-23T03:24:46.174Z,94961.00
2023-05-23T03:25:46.212Z,94959.00
2023-05-23T03:26:46.247Z,94960.00
2023-05-23T03:27:46.390Z,94960.00
2023-05-23T03:28:46.320Z,94960.00
2023-05-23T03:29:46.376Z,94960.00
2023-05-23T03:30:46.415Z,94961.00
2023-05-23T03:31:46.470Z,94960.00
2023-05-23T03:32:46.563Z,94962.00
2023-05-23T03:33:46.562Z,94961.00
2023-05-23T03:34:46.625Z,94963.00
2023-05-23T03:35:46.644Z,94963.00
2023-05-23T03:36:46.712Z,94967.00
2023-05-23T03:37:46.763Z,94969.00
2023-05-23T03:38:46.776Z,94969.00
2023-05-23T03:39:46.838Z,94973.00
2023-05-23T03:40:46.870Z,94972.00
2023-05-23T03:41:46.940Z,94974.00
2023-05-23T03:42:46.941Z,94974.00
2023-05-23T03:43:47.114Z,94974.00
2023-05-23T03:44:47.060Z,94978.00
2023-05-23T03:45:47.130Z,94980.00
2023-05-23T03:46:47.146Z,94982.00
2023-05-23T03:47:47.231Z,94983.00
2023-05-23T03:48:47.198Z,94984.00
2023-05-23T03:49:47.249Z,94986.00
2023-05-23T03:50:47.286Z,94987.00
2023-05-23T03:51:47.348Z,94990.00
2023-05-23T03:52:47.378Z,94992.00
2023-05-23T03:53:47.440Z,94994.00
2023-05-23T03:54:47.466Z,94996.00
2023-05-23T03:55:47.569Z,94995.00
2023-05-23T03:56:47.557Z,94997.00
2023-05-23T03:57:47.583Z,94998.00
2023-05-23T03:58:47.629Z,94997.00
2023-05-23T03:59:47.783Z,94998.00
2023-05-23T04:00:47.708Z,94999.00
2023-05-23T04:01:47.761Z,94998.00
2023-05-23T04:02:47.895Z,94998.00
2023-05-23T04:03:47.967Z,95000.00
2023-05-23T04:04:47.885Z,95001.00
2023-05-23T04:05:47.931Z,95003.00
2023-05-23T04:06:47.954Z,95004.00
2023-05-23T04:07:48.001Z,95005.00
2023-05-23T04:08:48.046Z,95008.00
2023-05-23T04:09:48.112Z,95010.00
2023-05-23T04:10:48.134Z,95009.00
2023-05-23T04:11:48.187Z,95007.00
2023-05-23T04:12:48.301Z,95009.00
2023-05-23T04:13:48.250Z,95009.00
2023-05-23T04:14:48.292Z,95008.00
2023-05-23T04:15:48.483Z,95010.00
2023-05-23T04:16:48.398Z,95009.00
2023-05-23T04:17:48.486Z,95008.00
2023-05-23T04:18:48.536Z,95009.00
2023-05-23T04:19:48.518Z,95011.00
2023-05-23T04:20:48.549Z,95011.00
2023-05-23T04:21:48.594Z,95012.00
2023-05-23T04:22:48.688Z,95016.00
2023-05-23T04:23:48.695Z,95016.00
2023-05-23T04:24:48.729Z,95018.00
2023-05-23T04:25:48.755Z,95016.00
2023-05-23T04:26:48.820Z,95018.00
2023-05-23T04:27:48.820Z,95019.00
2023-05-23T04:28:48.982Z,95021.00
2023-05-23T04:29:48.941Z,95021.00
2023-05-23T04:30:48.962Z,95023.00
2023-05-23T04:31:49.143Z,95025.00
2023-05-23T04:32:49.065Z,95026.00
2023-05-23T04:33:49.092Z,95029.00
2023-05-23T04:34:49.130Z,95025.00
2023-05-23T04:35:49.165Z,95027.00
2023-05-23T04:36:49.242Z,95029.00
2023-05-23T04:37:49.278Z,95027.00
2023-05-23T04:38:49.332Z,95028.00
2023-05-23T04:39:49.367Z,95027.00
2023-05-23T04:40:49.417Z,95028.00
2023-05-23T04:41:49.428Z,95030.00
2023-05-23T04:42:49.469Z,95029.00
2023-05-23T04:43:49.528Z,95028.00
2023-05-23T04:44:49.586Z,95029.00
2023-05-23T04:45:49.651Z,95029.00
2023-05-23T04:46:49.639Z,95030.00
2023-05-23T04:47:49.855Z,95032.00
2023-05-23T04:48:49.730Z,95032.00
2023-05-23T04:49:49.775Z,95035.00
2023-05-23T04:50:49.814Z,95034.00
2023-05-23T04:51:49.872Z,95034.00
2023-05-23T04:52:49.901Z,95035.00
2023-05-23T04:53:49.944Z,95037.00
2023-05-23T04:54:50.007Z,95040.00
2023-05-23T04:55:50.030Z,95039.00
2023-05-23T04:56:50.060Z,95039.00
2023-05-23T04:57:50.110Z,95041.00
2023-05-23T04:58:50.151Z,95041.00
2023-05-23T04:59:50.230Z,95041.00
2023-05-23T05:00:50.245Z,95044.00
2023-05-23T05:01:50.260Z,95043.00
2023-05-23T05:02:50.382Z,95045.00
2023-05-23T05:03:50.486Z,95047.00
2023-05-23T05:04:50.414Z,95046.00
2023-05-23T05:05:50.446Z,95050.00
2023-05-23T05:06:50.456Z,95046.00
2023-05-23T05:07:50.486Z,95050.00
2023-05-23T05:08:50.545Z,95052.00
2023-05-23T05:09:50.649Z,95052.00
2023-05-23T05:10:50.653Z,95052.00
2023-05-23T05:11:50.687Z,95053.00
2023-05-23T05:12:50.717Z,95053.00
2023-05-23T05:13:50.789Z,95053.00
2023-05-23T05:14:50.821Z,95054.00
2023-05-23T05:15:50.821Z,95056.00
2023-05-23T05:16:50.916Z,95057.00
2023-05-23T05:17:50.984Z,95057.00
2023-05-23T05:18:50.975Z,95057.00
2023-05-23T05:19:51.092Z,95060.00
2023-05-23T05:20:51.020Z,95060.00
2023-05-23T05:21:51.078Z,95061.00
2023-05-23T05:22:51.127Z,95063.00
2023-05-23T05:23:51.151Z,95065.00
2023-05-23T05:24:51.227Z,95063.00
2023-05-23T05:25:51.275Z,95063.00
2023-05-23T05:26:51.285Z,95064.00
2023-05-23T05:27:51.305Z,95064.00
2023-05-23T05:28:51.398Z,95067.00
2023-05-23T05:29:51.424Z,95066.00
2023-05-23T05:30:51.505Z,95066.00
2023-05-23T05:31:51.506Z,95068.00
2023-05-23T05:32:51.688Z,95069.00
2023-05-23T05:33:51.580Z,95071.00
2023-05-23T05:34:51.672Z,95075.00
2023-05-23T05:35:51.673Z,95074.00
2023-05-23T05:36:51.698Z,95077.00
2023-05-23T05:37:51.759Z,95076.00
2023-05-23T05:38:51.793Z,95078.00
2023-05-23T05:39:51.860Z,95079.00
2023-05-23T05:40:51.933Z,95079.00
2023-05-23T05:41:51.946Z,95080.00
2023-05-23T05:42:51.962Z,95079.00
2023-05-23T05:43:52.070Z,95082.00
2023-05-23T05:44:52.092Z,95082.00
2023-05-23T05:45:52.176Z,95083.00
2023-05-23T05:46:52.218Z,95084.00
2023-05-23T05:47:52.268Z,95083.00
2023-05-23T05:48:52.271Z,95083.00
2023-05-23T05:49:52.328Z,95086.00
2023-05-23T05:50:52.361Z,95085.00
2023-05-23T05:51:52.484Z,95088.00
2023-05-23T05:52:52.439Z,95087.00
2023-05-23T05:53:52.505Z,95085.00
2023-05-23T05:54:52.545Z,95086.00
2023-05-23T05:55:52.566Z,95087.00
2023-05-23T05:56:52.712Z,95086.00
2023-05-23T05:57:52.693Z,95086.00
2023-05-23T05:58:52.699Z,95085.00
2023-05-23T05:59:52.758Z,95086.00
2023-05-23T06:00:52.781Z,95087.00
2023-05-23T06:01:52.811Z,95087.00
2023-05-23T06:02:52.908Z,95087.00
2023-05-23T06:03:53.027Z,95088.00
2023-05-23T06:04:52.885Z,95090.00
2023-05-23T06:05:52.860Z,95089.00
2023-05-23T06:06:52.860Z,95088.00
2023-05-23T06:07:52.851Z,95089.00
2023-05-23T06:08:52.906Z,95090.00
2023-05-23T06:09:52.971Z,95089.00
2023-05-23T06:10:53.012Z,95092.00
2023-05-23T06:11:53.088Z,95093.00
2023-05-23T06:12:53.149Z,95096.00
2023-05-23T06:13:53.200Z,95097.00
2023-05-23T06:14:53.291Z,95098.00
2023-05-23T06:15:53.377Z,95099.00
2023-05-23T06:16:53.370Z,95098.00
2023-05-23T06:17:53.453Z,95099.00
2023-05-23T06:18:53.530Z,95097.00
2023-05-23T06:19:53.543Z,95101.00
2023-05-23T06:20:53.590Z,95103.00
2023-05-23T06:21:53.620Z,95107.00
2023-05-23T06:22:53.661Z,95111.00
2023-05-23T06:23:53.804Z,95112.00
2023-05-23T06:24:53.774Z,95113.00
2023-05-23T06:25:53.764Z,95113.00
2023-05-23T06:26:53.818Z,95112.00
2023-05-23T06:27:53.886Z,95112.00
2023-05-23T06:28:53.944Z,95110.00
2023-05-23T06:29:53.984Z,95114.00
2023-05-23T06:30:54.034Z,95117.00
2023-05-23T06:31:54.176Z,95115.00
2023-05-23T06:32:54.208Z,95118.00
2023-05-23T06:33:54.237Z,95119.00
2023-05-23T06:34:54.325Z,95121.00
2023-05-23T06:35:54.362Z,95120.00
2023-05-23T06:36:54.414Z,95122.00
2023-05-23T06:37:54.493Z,95122.00
2023-05-23T06:38:54.534Z,95126.00
2023-05-23T06:39:54.671Z,95127.00
2023-05-23T06:40:54.646Z,95123.00
2023-05-23T06:41:54.754Z,95122.00
2023-05-23T06:42:54.798Z,95122.00
2023-05-23T06:43:54.852Z,95121.00
2023-05-23T06:44:54.961Z,95121.00
2023-05-23T06:45:54.995Z,95122.00
2023-05-23T06:46:55.014Z,95123.00
2023-05-23T06:47:55.119Z,95125.00
2023-05-23T06:49:06.435Z,95125.00
2023-05-23T06:49:56.144Z,95128.00
2023-05-23T06:50:55.137Z,95125.00
2023-05-23T06:51:55.126Z,95127.00
2023-05-23T06:52:55.093Z,95130.00
2023-05-23T06:53:55.098Z,95132.00
2023-05-23T06:54:55.112Z,95133.00
2023-05-23T06:55:55.187Z,95130.00
2023-05-23T06:56:55.100Z,95133.00
2023-05-23T06:57:55.112Z,95133.00
2023-05-23T06:58:55.186Z,95136.00
2023-05-23T06:59:55.251Z,95135.00
2023-05-23T07:00:55.289Z,95135.00
2023-05-23T07:01:55.311Z,95138.00
2023-05-23T07:02:55.448Z,95137.00
2023-05-23T07:03:55.383Z,95138.00
2023-05-23T07:04:55.448Z,95141.00
2023-05-23T07:05:55.536Z,95142.00
2023-05-23T07:06:55.486Z,95143.00
2023-05-23T07:07:55.536Z,95145.00
2023-05-23T07:08:55.736Z,95145.00
2023-05-23T07:09:55.583Z,95144.00
2023-05-23T07:10:55.578Z,95143.00
2023-05-23T07:11:55.695Z,95143.00
2023-05-23T07:12:55.577Z,95144.00
2023-05-23T07:13:55.621Z,95147.00
2023-05-23T07:14:55.646Z,95147.00
2023-05-23T07:15:55.742Z,95150.00
2023-05-23T07:16:55.677Z,95149.00
2023-05-23T07:17:55.722Z,95149.00
2023-05-23T07:18:55.838Z,95148.00
2023-05-23T07:19:55.669Z,95149.00
2023-05-23T07:20:55.714Z,95149.00
2023-05-23T07:21:55.736Z,95151.00
2023-05-23T07:22:55.705Z,95152.00
2023-05-23T07:23:55.740Z,95150.00
2023-05-23T07:24:55.761Z,95152.00
2023-05-23T07:26:02.684Z,95152.00
2023-05-23T07:26:56.756Z,95153.00
2023-05-23T07:27:55.846Z,95151.00
2023-05-23T07:28:55.782Z,95152.00
2023-05-23T07:29:55.785Z,95151.00
2023-05-23T07:30:55.755Z,95152.00
2023-05-23T07:31:55.737Z,95151.00
2023-05-23T07:32:55.730Z,95153.00
2023-05-23T07:33:55.918Z,95152.00
2023-05-23T07:34:55.715Z,95152.00
2023-05-23T07:35:55.713Z,95154.00
2023-05-23T07:36:55.687Z,95153.00
2023-05-23T07:37:55.688Z,95151.00
2023-05-23T07:38:55.685Z,95150.00
2023-05-23T07:39:55.679Z,95151.00
2023-05-23T07:41:10.044Z,95151.00
2023-05-23T07:41:56.880Z,95152.00
2023-05-23T07:42:55.879Z,95150.00
2023-05-23T07:43:55.857Z,95155.00
2023-05-23T07:44:55.839Z,95156.00
2023-05-23T07:45:55.877Z,95156.00
2023-05-23T07:46:56.014Z,95155.00
2023-05-23T07:47:55.893Z,95161.00
2023-05-23T07:48:55.958Z,95162.00
2023-05-23T07:49:55.972Z,95162.00
2023-05-23T07:50:56.020Z,95162.00
2023-05-23T07:51:56.102Z,95162.00
2023-05-23T07:52:56.198Z,95163.00
2023-05-23T07:53:56.181Z,95165.00
2023-05-23T07:54:56.224Z,95164.00
2023-05-23T07:55:56.296Z,95167.00
2023-05-23T07:56:56.336Z,95168.00
2023-05-23T07:57:56.406Z,95169.00
2023-05-23T07:58:56.664Z,95171.00
2023-05-23T07:59:56.756Z,95173.00
2023-05-23T08:00:56.612Z,95171.00
2023-05-23T08:01:56.741Z,95170.00
2023-05-23T08:02:56.758Z,95168.00
2023-05-23T08:03:56.808Z,95169.00
2023-05-23T08:04:56.995Z,95169.00
2023-05-23T08:05:56.860Z,95170.00
2023-05-23T08:07:56.959Z,95175.00
2023-05-23T08:08:56.919Z,95177.00
2023-05-23T08:09:56.981Z,95178.00
2023-05-23T08:10:56.958Z,95178.00
2023-05-23T08:11:56.884Z,95177.00
2023-05-23T08:12:56.880Z,95175.00
2023-05-23T08:13:57.115Z,95179.00
2023-05-23T08:14:56.854Z,95178.00
2023-05-23T08:15:56.872Z,95180.00
2023-05-23T08:16:56.904Z,95176.00
2023-05-23T08:17:56.955Z,95178.00
2023-05-23T08:18:56.972Z,95177.00
2023-05-23T08:19:56.852Z,95175.00
2023-05-23T08:20:56.803Z,95178.00
2023-05-23T08:21:56.813Z,95176.00
2023-05-23T08:22:56.817Z,95178.00
2023-05-23T08:23:56.783Z,95177.00
2023-05-23T08:24:56.808Z,95177.00
2023-05-23T08:25:56.821Z,95178.00
2023-05-23T08:26:56.806Z,95177.00
2023-05-23T08:27:56.782Z,95180.00
2023-05-23T08:28:56.745Z,95179.00
2023-05-23T08:29:56.773Z,95178.00
2023-05-23T08:30:56.811Z,95179.00
2023-05-23T08:31:56.801Z,95177.00
2023-05-23T08:32:56.782Z,95176.00
2023-05-23T08:33:56.759Z,95175.00
2023-05-23T08:34:56.733Z,95177.00
2023-05-23T08:35:56.745Z,95176.00
2023-05-23T08:36:56.714Z,95174.00
2023-05-23T08:37:56.731Z,95176.00
2023-05-23T08:38:56.699Z,95176.00
2023-05-23T08:39:56.701Z,95175.00
2023-05-23T08:40:56.717Z,95174.00
2023-05-23T08:41:56.684Z,95174.00
2023-05-23T08:42:56.685Z,95173.00
2023-05-23T08:43:56.656Z,95175.00
2023-05-23T08:44:56.670Z,95175.00
2023-05-23T08:45:56.697Z,95176.00
2023-05-23T08:46:56.652Z,95172.00
2023-05-23T08:47:56.661Z,95174.00
2023-05-23T08:48:56.662Z,95178.00
2023-05-23T08:49:56.672Z,95173.00
2023-05-23T08:50:56.593Z,95169.00
2023-05-23T08:51:56.619Z,95171.00
2023-05-23T08:52:56.669Z,95173.00
2023-05-23T08:53:56.592Z,95174.00
2023-05-23T08:54:56.606Z,95171.00
2023-05-23T08:55:56.667Z,95172.00
2023-05-23T08:56:56.583Z,95171.00
2023-05-23T08:57:56.591Z,95172.00
2023-05-23T08:58:56.585Z,95171.00
2023-05-23T08:59:56.569Z,95170.00
2023-05-23T09:00:56.692Z,95170.00
2023-05-23T09:01:56.628Z,95170.00
2023-05-23T09:02:56.597Z,95169.00
2023-05-23T09:03:56.562Z,95172.00
2023-05-23T09:04:56.532Z,95174.00
2023-05-23T09:05:56.677Z,95173.00
2023-05-23T09:06:56.535Z,95174.00
2023-05-23T09:07:56.518Z,95172.00
2023-05-23T09:08:56.493Z,95173.00
2023-05-23T09:09:56.516Z,95171.00
2023-05-23T09:10:56.510Z,95170.00
2023-05-23T09:11:56.511Z,95169.00
2023-05-23T09:12:56.510Z,95171.00
2023-05-23T09:13:56.474Z,95171.00
2023-05-23T09:14:56.495Z,95171.00
2023-05-23T09:15:56.486Z,95171.00
2023-05-23T09:16:56.454Z,95169.00
2023-05-23T09:17:56.519Z,95170.00
2023-05-23T09:18:56.530Z,95169.00
2023-05-23T09:19:56.566Z,95170.00
2023-05-23T09:20:56.545Z,95170.00
2023-05-23T09:21:56.547Z,95166.00
2023-05-23T09:22:56.591Z,95164.00
2023-05-23T09:23:56.606Z,95162.00
2023-05-23T09:24:56.616Z,95162.00
2023-05-23T09:25:56.677Z,95158.00
2023-05-23T09:26:56.709Z,95156.00
2023-05-23T09:27:56.672Z,95155.00
2023-05-23T09:28:56.725Z,95156.00
2023-05-23T09:29:56.716Z,95156.00
2023-05-23T09:30:56.704Z,95154.00
2023-05-23T09:31:56.839Z,95153.00
2023-05-23T09:32:56.788Z,95156.00
2023-05-23T09:33:56.773Z,95155.00
2023-05-23T09:34:56.758Z,95152.00
2023-05-23T09:35:56.871Z,95153.00
2023-05-23T09:36:56.778Z,95152.00
2023-05-23T09:37:56.795Z,95150.00
2023-05-23T09:38:56.772Z,95151.00
2023-05-23T09:39:56.818Z,95151.00
2023-05-23T09:40:56.813Z,95151.00
2023-05-23T09:41:56.798Z,95151.00
2023-05-23T09:42:56.842Z,95148.00
2023-05-23T09:43:56.834Z,95146.00
2023-05-23T09:44:56.866Z,95147.00
2023-05-23T09:45:56.853Z,95142.00
2023-05-23T09:46:56.855Z,95140.00
2023-05-23T09:47:56.905Z,95139.00
2023-05-23T09:48:56.897Z,95140.00
2023-05-23T09:49:56.894Z,95138.00
2023-05-23T09:50:56.909Z,95140.00
2023-05-23T09:51:56.938Z,95141.00
2023-05-23T09:52:56.968Z,95137.00
2023-05-23T09:53:57.101Z,95139.00
2023-05-23T09:54:56.995Z,95137.00
2023-05-23T09:55:57.026Z,95135.00
2023-05-23T09:56:57.329Z,95131.00
2023-05-23T09:57:57.061Z,95133.00
2023-05-23T09:58:57.023Z,95131.00
2023-05-23T09:59:57.062Z,95131.00
2023-05-23T10:00:57.056Z,95129.00
2023-05-23T10:01:57.067Z,95129.00
2023-05-23T10:02:57.136Z,95127.00
2023-05-23T10:03:59.417Z,95127.00
2023-05-23T10:04:57.056Z,95124.00
2023-05-23T10:05:57.033Z,95128.00
2023-05-23T10:06:57.087Z,95122.00
2023-05-23T10:07:57.030Z,95122.00
2023-05-23T10:08:57.006Z,95120.00
2023-05-23T10:09:59.123Z,95119.00
2023-05-23T10:10:57.154Z,95116.00
2023-05-23T10:11:57.013Z,95114.00
2023-05-23T10:12:56.991Z,95110.00
2023-05-23T10:13:56.980Z,95108.00
2023-05-23T10:14:57.016Z,95109.00
2023-05-23T10:15:58.163Z,95106.00
2023-05-23T10:16:57.019Z,95107.00
2023-05-23T10:17:57.061Z,95106.00
2023-05-23T10:18:57.047Z,95103.00
2023-05-23T10:19:57.002Z,95102.00
2023-05-23T10:20:57.019Z,95099.00
2023-05-23T10:21:57.021Z,95097.00
2023-05-23T10:22:57.024Z,95096.00
2023-05-23T10:23:57.007Z,95095.00
2023-05-23T10:24:57.023Z,95092.00
2023-05-23T10:25:56.990Z,95090.00
2023-05-23T10:26:57.010Z,95091.00
2023-05-23T10:27:56.995Z,95088.00
2023-05-23T10:28:57.025Z,95088.00
2023-05-23T10:29:57.024Z,95084.00
2023-05-23T10:30:57.130Z,95085.00
2023-05-23T10:31:57.005Z,95081.00
2023-05-23T10:32:57.028Z,95081.00
2023-05-23T10:33:57.044Z,95078.00
2023-05-23T10:34:57.100Z,95075.00
2023-05-23T10:35:57.023Z,95075.00
2023-05-23T10:36:57.002Z,95073.00
2023-05-23T10:37:57.111Z,95067.00
2023-05-23T10:38:57.003Z,95066.00
2023-05-23T10:39:57.041Z,95063.00
2023-05-23T10:40:57.071Z,95064.00
2023-05-23T10:41:57.096Z,95065.00
2023-05-23T10:42:57.139Z,95063.00
2023-05-23T10:43:57.171Z,95062.00
2023-05-23T10:44:57.590Z,95060.00
2023-05-23T10:45:57.311Z,95060.00
2023-05-23T10:46:57.347Z,95060.00
2023-05-23T10:47:57.346Z,95057.00
2023-05-23T10:48:57.441Z,95056.00
2023-05-23T10:49:57.452Z,95053.00
2023-05-23T10:50:57.519Z,95049.00
2023-05-23T10:51:57.560Z,95045.00
2023-05-23T10:52:57.592Z,95041.00
2023-05-23T10:53:57.637Z,95040.00
2023-05-23T10:54:57.727Z,95040.00
2023-05-23T10:55:57.745Z,95035.00
2023-05-23T10:56:57.831Z,95032.00
2023-05-23T10:57:57.853Z,95033.00
2023-05-23T10:58:57.937Z,95032.00
2023-05-23T10:59:57.935Z,95030.00
2023-05-23T11:00:58.046Z,95032.00
2023-05-23T11:01:58.107Z,95029.00
2023-05-23T11:02:58.187Z,95031.00
2023-05-23T11:03:58.294Z,95031.00
2023-05-23T11:04:58.230Z,95031.00
2023-05-23T11:05:58.256Z,95031.00
2023-05-23T11:06:58.350Z,95030.00
2023-05-23T11:07:58.415Z,95030.00
2023-05-23T11:08:58.486Z,95029.00
2023-05-23T11:09:58.509Z,95029.00
2023-05-23T11:10:58.563Z,95026.00
2023-05-23T11:11:58.637Z,95024.00
2023-05-23T11:12:58.704Z,95022.00
2023-05-23T11:13:58.758Z,95021.00
2023-05-23T11:14:58.830Z,95020.00
2023-05-23T11:15:58.931Z,95018.00
2023-05-23T11:16:58.953Z,95016.00
2023-05-23T11:17:59.043Z,95015.00
2023-05-23T11:18:59.092Z,95011.00
2023-05-23T11:19:59.131Z,95011.00
2023-05-23T11:20:59.179Z,95012.00
2023-05-23T11:21:59.237Z,95011.00
2023-05-23T11:22:59.288Z,95009.00
2023-05-23T11:23:59.364Z,95006.00
2023-05-23T11:24:59.445Z,95008.00
2023-05-23T11:25:59.476Z,95009.00
2023-05-23T11:26:59.527Z,95007.00
2023-05-23T11:27:59.624Z,95006.00
2023-05-23T11:28:59.714Z,95006.00
2023-05-23T11:29:59.714Z,95002.00
2023-05-23T11:30:59.792Z,95001.00
2023-05-23T11:31:59.888Z,94998.00
2023-05-23T11:32:59.959Z,94997.00
2023-05-23T11:34:00.050Z,94998.00
2023-05-23T11:35:00.094Z,94994.00
2023-05-23T11:36:00.162Z,94996.00
2023-05-23T11:37:00.208Z,94993.00
2023-05-23T11:38:00.293Z,94995.00
2023-05-23T11:39:00.321Z,94993.00
2023-05-23T11:40:00.388Z,94991.00
2023-05-23T11:41:00.487Z,94992.00
2023-05-23T11:42:00.508Z,94992.00
2023-05-23T11:43:00.566Z,94992.00
2023-05-23T11:44:00.644Z,94989.00
2023-05-23T11:45:00.696Z,94990.00
2023-05-23T11:46:00.807Z,94985.00
2023-05-23T11:47:00.808Z,94982.00